sensor_id;sensor_type;location;lat;lon;timestamp;pressure;altitude;pressure_sealevel;temperature;humidity
32330;BME280;18807;52.434;13.238;2022-11-06T00:02:37;101511.47;;;4.83;100.00
32330;BME280;18807;52.434;13.238;2022-11-06T00:10:13;101507.81;;;4.81;100.00
32330;BME280;18807;52.434;13.238;2022-11-06T00:17:48;101505.88;;;4.77;100.00
32330;BME280;18807;52.434;13.238;2022-11-06T00:25:24;101505.72;;;4.74;100.00
32330;BME280;18807;52.434;13.238;2022-11-06T00:32:58;101498.38;;;4.69;100.00
32330;BME280;18807;52.434;13.238;2022-11-06T00:40:33;101504.31;;;4.65;100.00
32330;BME280;18807;52.434;13.238;2022-11-06T00:48:07;101510.63;;;4.67;100.00
32330;BME280;18807;52.434;13.238;2022-11-06T00:55:42;101509.69;;;4.66;100.00
32330;BME280;18807;52.434;13.238;2022-11-06T01:03:16;101500.94;;;4.67;100.00
32330;BME280;18807;52.434;13.238;2022-11-06T01:10:52;101497.38;;;4.67;100.00
32330;BME280;18807;52.434;13.238;2022-11-06T01:18:25;101495.44;;;4.63;100.00
32330;BME280;18807;52.434;13.238;2022-11-06T01:26:02;101488.38;;;4.63;100.00
32330;BME280;18807;52.434;13.238;2022-11-06T01:33:36;101473.28;;;4.61;100.00
32330;BME280;18807;52.434;13.238;2022-11-06T01:41:13;101473.34;;;4.62;100.00
32330;BME280;18807;52.434;13.238;2022-11-06T01:48:51;101463.69;;;4.63;100.00
32330;BME280;18807;52.434;13.238;2022-11-06T01:56:27;101454.69;;;4.59;100.00
32330;BME280;18807;52.434;13.238;2022-11-06T02:04:04;101452.03;;;4.59;100.00
32330;BME280;18807;52.434;13.238;2022-11-06T02:11:43;101438.81;;;4.59;100.00
32330;BME280;18807;52.434;13.238;2022-11-06T02:19:34;101433.59;;;4.61;100.00
32330;BME280;18807;52.434;13.238;2022-11-06T02:27:14;101428.38;;;4.62;100.00
32330;BME280;18807;52.434;13.238;2022-11-06T02:34:51;101427.38;;;4.60;100.00
32330;BME280;18807;52.434;13.238;2022-11-06T02:42:28;101429.06;;;4.58;100.00
32330;BME280;18807;52.434;13.238;2022-11-06T02:50:06;101435.25;;;4.59;100.00
32330;BME280;18807;52.434;13.238;2022-11-06T02:57:46;101417.88;;;4.64;100.00
32330;BME280;18807;52.434;13.238;2022-11-06T03:05:26;101418.03;;;4.67;100.00
32330;BME280;18807;52.434;13.238;2022-11-06T03:13:10;101423.47;;;4.70;100.00
32330;BME280;18807;52.434;13.238;2022-11-06T03:20:51;101419.81;;;4.68;100.00
32330;BME280;18807;52.434;13.238;2022-11-06T03:28:31;101424.97;;;4.65;100.00
32330;BME280;18807;52.434;13.238;2022-11-06T03:36:09;101425.72;;;4.62;100.00
32330;BME280;18807;52.434;13.238;2022-11-06T03:43:48;101412.34;;;4.59;100.00
32330;BME280;18807;52.434;13.238;2022-11-06T03:51:27;101410.56;;;4.58;100.00
32330;BME280;18807;52.434;13.238;2022-11-06T03:59:05;101409.56;;;4.56;100.00
32330;BME280;18807;52.434;13.238;2022-11-06T04:06:43;101411.91;;;4.50;100.00
32330;BME280;18807;52.434;13.238;2022-11-06T04:14:24;101391.44;;;4.46;100.00
32330;BME280;18807;52.434;13.238;2022-11-06T04:22:10;101387.66;;;4.41;100.00
32330;BME280;18807;52.434;13.238;2022-11-06T04:29:59;101386.53;;;4.36;100.00
32330;BME280;18807;52.434;13.238;2022-11-06T04:37:37;101382.81;;;4.33;100.00
32330;BME280;18807;52.434;13.238;2022-11-06T04:45:22;101397.19;;;4.38;100.00
32330;BME280;18807;52.434;13.238;2022-11-06T04:52:58;101390.22;;;4.40;100.00
32330;BME280;18807;52.434;13.238;2022-11-06T05:00:34;101372.63;;;4.40;100.00
32330;BME280;18807;52.434;13.238;2022-11-06T05:08:12;101364.59;;;4.39;100.00
32330;BME280;18807;52.434;13.238;2022-11-06T05:15:54;101365.44;;;4.38;100.00
32330;BME280;18807;52.434;13.238;2022-11-06T05:23:27;101370.28;;;4.29;100.00
32330;BME280;18807;52.434;13.238;2022-11-06T05:31:03;101360.66;;;4.31;100.00
32330;BME280;18807;52.434;13.238;2022-11-06T05:38:37;101373.16;;;4.33;100.00
32330;BME280;18807;52.434;13.238;2022-11-06T05:46:13;101373.09;;;4.32;100.00
32330;BME280;18807;52.434;13.238;2022-11-06T05:54:06;101369.28;;;4.27;100.00
32330;BME280;18807;52.434;13.238;2022-11-06T06:01:42;101366.34;;;4.21;100.00
32330;BME280;18807;52.434;13.238;2022-11-06T06:09:16;101372.31;;;4.17;100.00
32330;BME280;18807;52.434;13.238;2022-11-06T06:16:51;101363.31;;;4.13;100.00
32330;BME280;18807;52.434;13.238;2022-11-06T06:24:25;101374.56;;;4.09;100.00
32330;BME280;18807;52.434;13.238;2022-11-06T06:32:00;101385.16;;;4.09;100.00
32330;BME280;18807;52.434;13.238;2022-11-06T06:39:34;101388.75;;;4.11;100.00
32330;BME280;18807;52.434;13.238;2022-11-06T06:47:09;101392.63;;;4.18;100.00
32330;BME280;18807;52.434;13.238;2022-11-06T06:54:43;101387.66;;;4.24;100.00
32330;BME280;18807;52.434;13.238;2022-11-06T07:02:18;101400.41;;;4.32;100.00
32330;BME280;18807;52.434;13.238;2022-11-06T07:09:53;101385.97;;;4.61;100.00
32330;BME280;18807;52.434;13.238;2022-11-06T07:17:28;101397.44;;;4.79;100.00
32330;BME280;18807;52.434;13.238;2022-11-06T07:25:02;101397.63;;;5.01;100.00
32330;BME280;18807;52.434;13.238;2022-11-06T07:32:37;101389.56;;;5.36;100.00
32330;BME280;18807;52.434;13.238;2022-11-06T07:40:11;101388.25;;;5.45;100.00
32330;BME280;18807;52.434;13.238;2022-11-06T07:47:47;101381.59;;;5.55;100.00
32330;BME280;18807;52.434;13.238;2022-11-06T07:55:21;101373.63;;;5.93;100.00
32330;BME280;18807;52.434;13.238;2022-11-06T08:02:56;101370.44;;;6.43;100.00
32330;BME280;18807;52.434;13.238;2022-11-06T08:10:30;101355.13;;;6.80;100.00
32330;BME280;18807;52.434;13.238;2022-11-06T08:18:06;101344.09;;;7.13;100.00
32330;BME280;18807;52.434;13.238;2022-11-06T08:25:40;101360.41;;;7.71;100.00
32330;BME280;18807;52.434;13.238;2022-11-06T08:33:16;101358.88;;;8.02;100.00
32330;BME280;18807;52.434;13.238;2022-11-06T08:40:50;101342.31;;;8.36;100.00
32330;BME280;18807;52.434;13.238;2022-11-06T08:48:26;101325.66;;;8.98;100.00
32330;BME280;18807;52.434;13.238;2022-11-06T08:56:01;101319.78;;;8.80;100.00
32330;BME280;18807;52.434;13.238;2022-11-06T09:03:36;101333.88;;;8.77;100.00
32330;BME280;18807;52.434;13.238;2022-11-06T09:11:10;101329.47;;;8.78;100.00
32330;BME280;18807;52.434;13.238;2022-11-06T09:18:45;101330.00;;;8.66;100.00
32330;BME280;18807;52.434;13.238;2022-11-06T09:26:19;101334.03;;;8.54;100.00
32330;BME280;18807;52.434;13.238;2022-11-06T09:33:55;101339.28;;;8.52;100.00
32330;BME280;18807;52.434;13.238;2022-11-06T09:41:33;101320.63;;;8.51;100.00
32330;BME280;18807;52.434;13.238;2022-11-06T09:49:16;101329.81;;;8.60;100.00
32330;BME280;18807;52.434;13.238;2022-11-06T09:56:56;101327.72;;;8.78;100.00
32330;BME280;18807;52.434;13.238;2022-11-06T10:04:39;101306.81;;;8.92;100.00
32330;BME280;18807;52.434;13.238;2022-11-06T10:12:19;101309.94;;;9.07;100.00
32330;BME280;18807;52.434;13.238;2022-11-06T10:20:08;101300.63;;;9.22;100.00
32330;BME280;18807;52.434;13.238;2022-11-06T10:27:52;101293.66;;;9.27;100.00
32330;BME280;18807;52.434;13.238;2022-11-06T10:35:33;101283.09;;;9.30;100.00
32330;BME280;18807;52.434;13.238;2022-11-06T10:43:20;101275.44;;;9.42;100.00
32330;BME280;18807;52.434;13.238;2022-11-06T10:51:07;101267.38;;;9.41;100.00
32330;BME280;18807;52.434;13.238;2022-11-06T10:58:45;101250.75;;;9.49;100.00
32330;BME280;18807;52.434;13.238;2022-11-06T11:06:20;101239.59;;;9.64;100.00
32330;BME280;18807;52.434;13.238;2022-11-06T11:14:18;101233.94;;;9.86;100.00
32330;BME280;18807;52.434;13.238;2022-11-06T11:21:58;101228.69;;;9.89;100.00
32330;BME280;18807;52.434;13.238;2022-11-06T11:29:33;101224.31;;;9.92;100.00
32330;BME280;18807;52.434;13.238;2022-11-06T11:37:23;101226.41;;;10.04;98.90
32330;BME280;18807;52.434;13.238;2022-11-06T11:45:12;101213.31;;;10.13;98.06
32330;BME280;18807;52.434;13.238;2022-11-06T11:52:49;101197.53;;;10.24;97.28
32330;BME280;18807;52.434;13.238;2022-11-06T12:00:26;101190.31;;;10.20;95.50
32330;BME280;18807;52.434;13.238;2022-11-06T12:08:02;101167.34;;;10.26;95.13
32330;BME280;18807;52.434;13.238;2022-11-06T12:15:43;101159.53;;;10.35;96.39
32330;BME280;18807;52.434;13.238;2022-11-06T12:23:25;101159.50;;;10.34;97.08
32330;BME280;18807;52.434;13.238;2022-11-06T12:31:04;101151.63;;;10.40;94.92
32330;BME280;18807;52.434;13.238;2022-11-06T12:38:46;101149.00;;;10.41;93.89
32330;BME280;18807;52.434;13.238;2022-11-06T12:46:34;101133.97;;;10.48;93.25
32330;BME280;18807;52.434;13.238;2022-11-06T12:54:25;101132.34;;;10.54;92.90
32330;BME280;18807;52.434;13.238;2022-11-06T13:02:19;101129.88;;;10.63;91.47
32330;BME280;18807;52.434;13.238;2022-11-06T13:10:16;101121.00;;;10.66;91.70
32330;BME280;18807;52.434;13.238;2022-11-06T13:17:56;101117.41;;;10.65;90.88
32330;BME280;18807;52.434;13.238;2022-11-06T13:25:40;101103.22;;;10.66;91.19
32330;BME280;18807;52.434;13.238;2022-11-06T13:33:20;101082.69;;;10.65;91.05
32330;BME280;18807;52.434;13.238;2022-11-06T13:40:59;101074.66;;;10.64;91.77
32330;BME280;18807;52.434;13.238;2022-11-06T13:48:43;101074.84;;;10.74;90.28
32330;BME280;18807;52.434;13.238;2022-11-06T14:04:38;101071.41;;;10.78;88.63
32330;BME280;18807;52.434;13.238;2022-11-06T14:12:17;101057.03;;;10.73;89.73
32330;BME280;18807;52.434;13.238;2022-11-06T14:20:01;101052.59;;;10.72;88.08
32330;BME280;18807;52.434;13.238;2022-11-06T14:28:04;101048.97;;;10.70;88.04
32330;BME280;18807;52.434;13.238;2022-11-06T14:35:51;101044.31;;;10.60;89.82
32330;BME280;18807;52.434;13.238;2022-11-06T14:43:29;101029.88;;;10.51;91.08
32330;BME280;18807;52.434;13.238;2022-11-06T14:51:05;100999.56;;;10.47;91.72
32330;BME280;18807;52.434;13.238;2022-11-06T14:58:47;100998.47;;;10.38;92.71
32330;BME280;18807;52.434;13.238;2022-11-06T15:06:40;101004.56;;;10.31;92.60
32330;BME280;18807;52.434;13.238;2022-11-06T15:14:56;101000.69;;;10.15;93.96
32330;BME280;18807;52.434;13.238;2022-11-06T15:22:35;101003.06;;;10.03;94.98
32330;BME280;18807;52.434;13.238;2022-11-06T15:30:15;101006.38;;;9.91;95.85
32330;BME280;18807;52.434;13.238;2022-11-06T15:37:52;101009.63;;;9.77;97.13
32330;BME280;18807;52.434;13.238;2022-11-06T15:45:29;101000.44;;;9.64;98.01
32330;BME280;18807;52.434;13.238;2022-11-06T15:53:22;100983.28;;;9.52;97.74
32330;BME280;18807;52.434;13.238;2022-11-06T16:00:57;100969.59;;;9.37;98.77
32330;BME280;18807;52.434;13.238;2022-11-06T16:08:32;100957.56;;;9.15;100.00
32330;BME280;18807;52.434;13.238;2022-11-06T16:16:30;100950.22;;;9.07;100.00
32330;BME280;18807;52.434;13.238;2022-11-06T16:24:10;100933.03;;;8.93;100.00
32330;BME280;18807;52.434;13.238;2022-11-06T16:31:48;100932.84;;;8.85;100.00
32330;BME280;18807;52.434;13.238;2022-11-06T16:39:40;100933.28;;;8.68;100.00
32330;BME280;18807;52.434;13.238;2022-11-06T16:47:24;100926.69;;;8.54;100.00
32330;BME280;18807;52.434;13.238;2022-11-06T16:54:59;100938.78;;;8.40;100.00
32330;BME280;18807;52.434;13.238;2022-11-06T17:02:39;100930.47;;;8.28;100.00
32330;BME280;18807;52.434;13.238;2022-11-06T17:10:34;100932.78;;;8.17;100.00
32330;BME280;18807;52.434;13.238;2022-11-06T17:18:13;100929.13;;;8.13;100.00
32330;BME280;18807;52.434;13.238;2022-11-06T17:25:48;100930.75;;;8.08;100.00
32330;BME280;18807;52.434;13.238;2022-11-06T17:33:26;100932.41;;;8.03;100.00
32330;BME280;18807;52.434;13.238;2022-11-06T17:40:59;100935.97;;;8.04;100.00
32330;BME280;18807;52.434;13.238;2022-11-06T17:48:35;100934.94;;;7.99;100.00
32330;BME280;18807;52.434;13.238;2022-11-06T17:56:08;100921.47;;;7.93;100.00
32330;BME280;18807;52.434;13.238;2022-11-06T18:03:44;100919.56;;;7.87;100.00
32330;BME280;18807;52.434;13.238;2022-11-06T18:11:18;100918.47;;;7.81;100.00
32330;BME280;18807;52.434;13.238;2022-11-06T18:18:53;100903.25;;;7.75;100.00
32330;BME280;18807;52.434;13.238;2022-11-06T18:26:27;100911.13;;;7.72;100.00
32330;BME280;18807;52.434;13.238;2022-11-06T18:34:04;100903.94;;;7.68;100.00
32330;BME280;18807;52.434;13.238;2022-11-06T18:41:38;100896.81;;;7.67;100.00
32330;BME280;18807;52.434;13.238;2022-11-06T18:49:13;100898.50;;;7.64;100.00
32330;BME280;18807;52.434;13.238;2022-11-06T18:56:47;100893.03;;;7.59;100.00
32330;BME280;18807;52.434;13.238;2022-11-06T19:04:22;100889.28;;;7.53;100.00
32330;BME280;18807;52.434;13.238;2022-11-06T19:11:59;100898.94;;;7.49;100.00
32330;BME280;18807;52.434;13.238;2022-11-06T19:19:34;100887.97;;;7.39;100.00
32330;BME280;18807;52.434;13.238;2022-11-06T19:27:08;100884.25;;;7.32;100.00
32330;BME280;18807;52.434;13.238;2022-11-06T19:34:44;100892.97;;;7.27;100.00
32330;BME280;18807;52.434;13.238;2022-11-06T19:42:18;100885.69;;;7.21;100.00
32330;BME280;18807;52.434;13.238;2022-11-06T19:49:53;100884.72;;;7.18;100.00
32330;BME280;18807;52.434;13.238;2022-11-06T19:57:27;100886.47;;;7.17;100.00
32330;BME280;18807;52.434;13.238;2022-11-06T20:05:03;100877.47;;;7.14;100.00
32330;BME280;18807;52.434;13.238;2022-11-06T20:12:37;100878.41;;;7.14;100.00
32330;BME280;18807;52.434;13.238;2022-11-06T20:20:13;100862.22;;;7.07;100.00
32330;BME280;18807;52.434;13.238;2022-11-06T20:27:47;100860.09;;;6.95;100.00
32330;BME280;18807;52.434;13.238;2022-11-06T20:35:22;100849.38;;;6.92;100.00
32330;BME280;18807;52.434;13.238;2022-11-06T20:42:56;100849.34;;;6.91;100.00
32330;BME280;18807;52.434;13.238;2022-11-06T20:50:31;100840.41;;;6.89;100.00
32330;BME280;18807;52.434;13.238;2022-11-06T20:58:05;100820.09;;;6.89;100.00
32330;BME280;18807;52.434;13.238;2022-11-06T21:05:40;100811.22;;;6.89;100.00
32330;BME280;18807;52.434;13.238;2022-11-06T21:13:14;100800.53;;;6.87;100.00
32330;BME280;18807;52.434;13.238;2022-11-06T21:20:49;100787.19;;;6.84;100.00
32330;BME280;18807;52.434;13.238;2022-11-06T21:28:23;100784.47;;;6.83;100.00
32330;BME280;18807;52.434;13.238;2022-11-06T21:36:06;100785.41;;;6.83;100.00
32330;BME280;18807;52.434;13.238;2022-11-06T21:43:41;100776.47;;;6.81;100.00
32330;BME280;18807;52.434;13.238;2022-11-06T21:51:18;100773.00;;;6.82;100.00
32330;BME280;18807;52.434;13.238;2022-11-06T21:58:55;100774.81;;;6.85;100.00
32330;BME280;18807;52.434;13.238;2022-11-06T22:06:30;100754.41;;;6.82;100.00
32330;BME280;18807;52.434;13.238;2022-11-06T22:14:06;100742.09;;;6.86;100.00
32330;BME280;18807;52.434;13.238;2022-11-06T22:21:42;100746.63;;;6.88;100.00
32330;BME280;18807;52.434;13.238;2022-11-06T22:29:15;100740.41;;;6.88;100.00
32330;BME280;18807;52.434;13.238;2022-11-06T22:36:51;100738.69;;;6.90;100.00
32330;BME280;18807;52.434;13.238;2022-11-06T22:44:25;100745.81;;;6.91;100.00
32330;BME280;18807;52.434;13.238;2022-11-06T22:52:00;100742.31;;;6.93;100.00
32330;BME280;18807;52.434;13.238;2022-11-06T22:59:34;100754.72;;;6.93;100.00
32330;BME280;18807;52.434;13.238;2022-11-06T23:07:09;100761.78;;;6.92;100.00
32330;BME280;18807;52.434;13.238;2022-11-06T23:14:43;100765.38;;;6.94;100.00
32330;BME280;18807;52.434;13.238;2022-11-06T23:22:19;100763.59;;;6.95;100.00
32330;BME280;18807;52.434;13.238;2022-11-06T23:30:12;100749.22;;;6.87;100.00
32330;BME280;18807;52.434;13.238;2022-11-06T23:37:47;100744.94;;;6.92;100.00
32330;BME280;18807;52.434;13.238;2022-11-06T23:45:21;100744.16;;;6.94;100.00
32330;BME280;18807;52.434;13.238;2022-11-06T23:53:15;100745.06;;;6.96;100.00
